createdAt,value
2017-07-01T00:00:58.376Z,86.00
2017-07-01T00:03:26.653Z,85.10
2017-07-01T00:05:54.928Z,85.60
2017-07-01T00:08:23.218Z,85.20
2017-07-01T00:10:51.489Z,85.10
2017-07-01T00:13:19.796Z,84.60
2017-07-01T00:15:48.065Z,84.50
2017-07-01T00:18:16.369Z,84.20
2017-07-01T00:20:44.637Z,84.10
2017-07-01T00:23:12.906Z,84.10
2017-07-01T00:25:41.244Z,84.20
2017-07-01T00:28:09.513Z,83.80
2017-07-01T00:30:37.784Z,83.50
2017-07-01T00:33:06.076Z,82.70
2017-07-01T00:35:34.345Z,82.50
2017-07-01T00:38:02.643Z,82.50
2017-07-01T00:40:30.962Z,82.60
2017-07-01T00:42:59.228Z,82.90
2017-07-01T00:45:27.508Z,82.60
2017-07-01T00:47:55.801Z,82.70
2017-07-01T00:50:24.132Z,83.50
2017-07-01T00:52:52.411Z,83.40
2017-07-01T00:55:20.685Z,83.30
2017-07-01T00:57:48.967Z,82.80
2017-07-01T01:00:17.245Z,83.10
2017-07-01T01:02:45.556Z,83.20
2017-07-01T01:05:13.821Z,83.40
2017-07-01T01:07:42.100Z,83.60
2017-07-01T01:10:10.390Z,84.60
2017-07-01T01:12:38.655Z,85.60
2017-07-01T01:15:06.946Z,86.60
2017-07-01T01:17:35.220Z,86.70
2017-07-01T01:20:03.517Z,87.60
2017-07-01T01:22:31.828Z,88.30
2017-07-01T01:25:00.105Z,88.80
2017-07-01T01:27:28.385Z,89.60
2017-07-01T01:29:56.697Z,89.20
2017-07-01T01:32:25.009Z,90.00
2017-07-01T01:34:53.282Z,90.00
2017-07-01T01:37:21.561Z,90.00
2017-07-01T01:39:49.881Z,90.50
2017-07-01T01:42:18.159Z,91.10
2017-07-01T01:44:46.423Z,90.50
2017-07-01T01:47:14.746Z,90.30
2017-07-01T01:49:43.021Z,90.50
2017-07-01T01:52:11.295Z,90.20
2017-07-01T01:54:39.606Z,90.80
2017-07-01T01:57:07.881Z,91.00
2017-07-01T01:59:36.190Z,90.90
2017-07-01T02:02:04.460Z,90.80
2017-07-01T02:04:32.732Z,91.10
2017-07-01T02:07:01.018Z,91.00
2017-07-01T02:09:29.292Z,91.10
2017-07-01T02:12:09.977Z,91.20
2017-07-01T02:14:38.243Z,91.50
2017-07-01T02:17:11.976Z,91.30
2017-07-01T02:19:40.243Z,91.30
2017-07-01T02:22:26.164Z,91.50
2017-07-01T02:25:11.991Z,91.80
2017-07-01T02:27:40.284Z,91.70
2017-07-01T02:30:08.557Z,92.00
2017-07-01T02:32:58.687Z,92.30
2017-07-01T02:35:27.006Z,92.20
2017-07-01T02:37:55.272Z,92.20
2017-07-01T02:40:23.564Z,92.20
2017-07-01T02:42:51.837Z,92.50
2017-07-01T02:45:37.846Z,92.50
2017-07-01T02:48:08.920Z,92.30
2017-07-01T02:50:40.632Z,92.70
2017-07-01T02:53:21.752Z,92.30
2017-07-01T02:56:11.873Z,92.50
2017-07-01T02:58:45.834Z,92.50
2017-07-01T03:01:14.170Z,93.00
2017-07-01T03:03:42.493Z,92.50
2017-07-01T03:06:10.776Z,92.50
2017-07-01T03:08:39.053Z,92.70
2017-07-01T03:11:07.344Z,92.70
2017-07-01T03:13:35.621Z,92.70
2017-07-01T03:16:03.926Z,92.80
2017-07-01T03:18:32.197Z,92.70
2017-07-01T03:21:01.427Z,92.70
2017-07-01T03:23:29.700Z,93.00
2017-07-01T03:25:58.834Z,92.70
2017-07-01T03:28:27.164Z,92.70
2017-07-01T03:30:55.456Z,92.80
2017-07-01T03:33:23.741Z,93.00
2017-07-01T03:35:52.013Z,92.70
2017-07-01T03:38:42.060Z,92.70
2017-07-01T03:41:22.208Z,92.80
2017-07-01T03:44:09.280Z,93.10
2017-07-01T03:46:39.996Z,93.30
2017-07-01T03:49:10.910Z,93.30
2017-07-01T03:51:39.187Z,93.30
2017-07-01T03:54:07.464Z,93.40
2017-07-01T03:56:35.757Z,93.00
2017-07-01T03:59:04.033Z,93.20
2017-07-01T04:01:32.330Z,92.90
2017-07-01T04:04:00.604Z,93.10
2017-07-01T04:06:28.920Z,93.40
2017-07-01T04:08:57.210Z,93.50
2017-07-01T04:11:25.485Z,93.60
2017-07-01T04:13:53.783Z,93.70
2017-07-01T04:16:22.061Z,93.50
2017-07-01T04:18:52.997Z,93.50
2017-07-01T04:21:21.268Z,93.60
2017-07-01T04:23:48.777Z,93.60
2017-07-01T04:26:17.108Z,94.00
2017-07-01T04:28:45.423Z,94.10
2017-07-01T04:31:13.706Z,94.10
2017-07-01T04:33:41.993Z,93.80
2017-07-01T04:36:10.277Z,94.20
2017-07-01T04:38:45.293Z,94.50
2017-07-01T04:41:17.557Z,94.30
2017-07-01T04:43:57.387Z,94.40
2017-07-01T04:46:25.713Z,94.80
2017-07-01T04:48:55.112Z,94.40
2017-07-01T04:51:31.228Z,94.70
2017-07-01T04:54:00.294Z,95.20
2017-07-01T04:57:05.050Z,95.10
2017-07-01T04:59:33.325Z,95.10
2017-07-01T05:02:06.255Z,95.00
2017-07-01T05:04:38.937Z,95.20
2017-07-01T05:10:25.504Z,94.60
2017-07-01T05:12:53.797Z,94.80
2017-07-01T05:15:39.938Z,95.00
2017-07-01T05:18:08.238Z,94.90
2017-07-01T05:20:53.842Z,95.20
2017-07-01T05:23:22.150Z,94.70
2017-07-01T05:26:06.765Z,94.80
2017-07-01T05:28:41.841Z,94.70
2017-07-01T05:31:22.833Z,95.00
2017-07-01T05:33:54.670Z,95.10
2017-07-01T05:36:29.812Z,94.90
2017-07-01T05:39:08.863Z,95.10
2017-07-01T05:41:39.921Z,95.10
2017-07-01T05:44:08.221Z,95.40
2017-07-01T05:46:39.065Z,95.20
2017-07-01T05:49:12.878Z,94.60
2017-07-01T05:51:44.817Z,94.70
2017-07-01T05:54:29.864Z,94.80
2017-07-01T05:56:58.152Z,94.70
2017-07-01T05:59:40.032Z,95.00
2017-07-01T06:02:10.103Z,95.10
2017-07-01T06:04:38.369Z,95.20
2017-07-01T06:07:06.657Z,95.10
2017-07-01T06:09:46.776Z,95.10
2017-07-01T06:12:26.853Z,95.00
2017-07-01T06:14:55.137Z,95.00
2017-07-01T06:17:40.225Z,95.20
2017-07-01T06:20:23.404Z,95.00
2017-07-01T06:22:51.686Z,94.60
2017-07-01T06:25:19.955Z,95.00
2017-07-01T06:27:48.950Z,94.90
2017-07-01T06:30:28.911Z,95.10
2017-07-01T06:33:14.848Z,95.10
2017-07-01T06:36:08.917Z,94.90
2017-07-01T06:38:40.748Z,94.80
2017-07-01T06:41:17.474Z,95.00
2017-07-01T06:43:57.660Z,95.10
2017-07-01T06:46:29.649Z,95.10
2017-07-01T06:48:58.652Z,94.90
2017-07-01T06:51:26.932Z,95.10
2017-07-01T06:53:58.037Z,94.90
2017-07-01T06:56:26.321Z,94.90
2017-07-01T06:58:54.585Z,94.90
2017-07-01T07:01:23.861Z,95.20
2017-07-01T07:03:52.131Z,94.60
2017-07-01T07:06:19.649Z,94.70
2017-07-01T07:08:47.930Z,94.30
2017-07-01T07:11:16.235Z,94.50
2017-07-01T07:13:44.500Z,94.60
2017-07-01T07:16:12.777Z,94.90
2017-07-01T07:18:41.065Z,95.40
2017-07-01T07:21:09.381Z,94.60
2017-07-01T07:23:37.657Z,94.30
2017-07-01T07:26:05.970Z,94.20
2017-07-01T07:28:34.234Z,94.20
2017-07-01T07:31:02.537Z,93.90
2017-07-01T07:33:30.806Z,94.60
2017-07-01T07:35:59.126Z,94.30
2017-07-01T07:38:27.421Z,94.40
2017-07-01T07:40:55.686Z,93.60
2017-07-01T07:43:23.972Z,94.20
2017-07-01T07:45:52.245Z,94.20
2017-07-01T07:48:20.545Z,94.00
2017-07-01T07:50:48.809Z,94.30
2017-07-01T07:53:17.109Z,94.60
2017-07-01T07:55:47.483Z,94.60
2017-07-01T07:58:15.777Z,93.90
2017-07-01T08:00:44.046Z,94.50
2017-07-01T08:03:12.347Z,93.90
2017-07-01T08:05:40.608Z,93.60
2017-07-01T08:08:08.874Z,93.20
2017-07-01T08:10:37.168Z,93.60
2017-07-01T08:13:05.438Z,94.10
2017-07-01T08:15:33.741Z,93.60
2017-07-01T08:18:01.238Z,93.50
2017-07-01T08:20:29.505Z,93.50
2017-07-01T08:22:57.787Z,93.80
2017-07-01T08:25:26.054Z,94.10
2017-07-01T08:27:54.362Z,93.90
2017-07-01T08:30:22.629Z,94.00
2017-07-01T08:32:50.886Z,93.80
2017-07-01T08:35:19.188Z,93.90
2017-07-01T08:37:47.448Z,93.60
2017-07-01T08:40:15.715Z,94.00
2017-07-01T08:42:43.996Z,94.20
2017-07-01T08:45:12.269Z,94.60
2017-07-01T08:47:40.551Z,95.30
2017-07-01T08:50:08.820Z,94.90
2017-07-01T08:52:37.128Z,95.30
2017-07-01T08:55:05.394Z,94.50
2017-07-01T08:57:33.656Z,94.70
2017-07-01T09:00:01.946Z,94.80
2017-07-01T09:02:30.210Z,95.60
2017-07-01T09:04:58.549Z,96.00
2017-07-01T09:07:26.810Z,95.90
2017-07-01T09:09:55.113Z,95.70
2017-07-01T09:12:23.388Z,95.90
2017-07-01T09:14:51.656Z,96.40
2017-07-01T09:23:07.806Z,95.90
2017-07-01T09:25:36.092Z,96.10
2017-07-01T09:28:04.357Z,96.50
2017-07-01T09:30:32.660Z,96.10
2017-07-01T09:33:00.920Z,95.90
2017-07-01T09:35:29.185Z,95.90
2017-07-01T09:37:57.495Z,95.70
2017-07-01T09:40:25.759Z,95.70
2017-07-01T09:42:54.056Z,95.70
2017-07-01T09:45:22.346Z,95.40
2017-07-01T09:47:50.642Z,95.70
2017-07-01T09:50:18.918Z,96.50
2017-07-01T09:52:47.216Z,96.10
2017-07-01T09:55:15.487Z,96.00
2017-07-01T09:57:43.769Z,95.90
2017-07-01T10:00:12.079Z,95.70
2017-07-01T10:02:40.340Z,95.20
2017-07-01T10:05:08.596Z,95.40
2017-07-01T10:07:36.896Z,95.40
2017-07-01T10:10:05.198Z,95.80
2017-07-01T10:12:33.479Z,96.40
2017-07-01T10:15:01.781Z,96.60
2017-07-01T10:17:30.047Z,96.10
2017-07-01T10:19:58.362Z,95.40
2017-07-01T10:22:26.649Z,96.30
2017-07-01T10:24:54.930Z,96.50
2017-07-01T10:27:22.451Z,96.50
2017-07-01T10:29:50.711Z,95.80
2017-07-01T10:32:19.008Z,96.40
2017-07-01T10:34:47.265Z,96.40
2017-07-01T10:37:15.895Z,96.60
2017-07-01T10:39:44.156Z,96.70
2017-07-01T10:42:12.416Z,96.60
2017-07-01T10:44:40.701Z,96.20
2017-07-01T10:47:08.972Z,95.80
2017-07-01T10:49:37.268Z,96.00
2017-07-01T10:52:05.540Z,95.90
2017-07-01T10:54:33.836Z,96.20
2017-07-01T10:57:02.120Z,96.50
2017-07-01T10:59:30.419Z,95.90
2017-07-01T11:01:58.716Z,96.00
2017-07-01T11:04:27.015Z,95.60
2017-07-01T11:06:55.277Z,95.70
2017-07-01T11:09:23.547Z,96.30
2017-07-01T11:11:51.852Z,96.80
2017-07-01T11:14:20.112Z,95.40
2017-07-01T11:16:48.421Z,95.40
2017-07-01T11:19:16.676Z,94.80
2017-07-01T11:21:44.941Z,95.20
2017-07-01T11:24:13.242Z,95.00
2017-07-01T11:26:41.506Z,94.60
2017-07-01T11:29:09.817Z,94.80
2017-07-01T11:31:38.088Z,95.20
2017-07-01T11:34:06.384Z,95.10
2017-07-01T11:36:34.685Z,94.50
2017-07-01T11:39:02.187Z,94.50
2017-07-01T11:41:30.444Z,94.70
2017-07-01T11:43:58.752Z,94.40
2017-07-01T11:46:27.024Z,94.50
2017-07-01T11:48:55.298Z,94.70
2017-07-01T11:51:23.591Z,94.40
2017-07-01T11:53:51.884Z,94.70
2017-07-01T11:56:20.154Z,94.50
2017-07-01T11:58:48.466Z,94.40
2017-07-01T12:01:16.730Z,94.90
2017-07-01T12:03:45.000Z,95.10
2017-07-01T12:06:13.290Z,95.20
2017-07-01T12:08:41.570Z,95.30
2017-07-01T12:11:09.872Z,96.00
2017-07-01T12:13:38.144Z,95.40
2017-07-01T12:16:06.402Z,95.50
2017-07-01T12:18:34.704Z,95.30
2017-07-01T12:21:02.974Z,95.40
2017-07-01T12:23:31.267Z,95.50
2017-07-01T12:25:59.537Z,95.00
2017-07-01T12:28:27.834Z,95.70
2017-07-01T12:30:56.142Z,94.40
2017-07-01T12:33:24.410Z,95.10
2017-07-01T12:35:52.681Z,94.60
2017-07-01T12:38:20.972Z,94.40
2017-07-01T12:40:49.236Z,94.10
2017-07-01T12:43:17.534Z,94.20
2017-07-01T12:45:45.803Z,93.00
2017-07-01T12:48:14.110Z,93.30
2017-07-01T12:50:42.385Z,93.80
2017-07-01T12:53:10.677Z,94.30
2017-07-01T12:55:38.180Z,94.30
2017-07-01T12:58:06.480Z,93.60
2017-07-01T13:00:34.792Z,93.40
2017-07-01T13:03:03.056Z,92.90
2017-07-01T13:05:30.562Z,92.90
2017-07-01T13:07:58.865Z,93.80
2017-07-01T13:10:27.119Z,94.00
2017-07-01T13:12:55.421Z,94.50
2017-07-01T13:15:23.718Z,94.70
2017-07-01T13:17:51.989Z,94.60
2017-07-01T13:20:20.288Z,94.50
2017-07-01T13:22:48.555Z,95.00
2017-07-01T13:25:16.081Z,95.00
2017-07-01T13:27:44.376Z,94.40
2017-07-01T13:30:12.640Z,94.40
2017-07-01T13:32:40.942Z,94.40
2017-07-01T13:35:09.217Z,94.30
2017-07-01T13:37:37.524Z,94.70
2017-07-01T13:40:05.840Z,95.20
2017-07-01T13:42:34.103Z,95.40
2017-07-01T13:45:02.410Z,95.10
2017-07-01T13:47:30.688Z,95.60
2017-07-01T13:49:58.962Z,95.70
2017-07-01T13:52:27.259Z,95.90
2017-07-01T13:54:55.530Z,96.40
2017-07-01T13:57:23.824Z,97.10
2017-07-01T13:59:52.112Z,97.30
2017-07-01T14:02:20.381Z,97.10
2017-07-01T14:04:48.683Z,97.70
2017-07-01T14:07:16.967Z,97.90
2017-07-01T14:09:45.264Z,97.60
2017-07-01T14:12:13.532Z,97.40
2017-07-01T14:14:41.832Z,97.20
2017-07-01T14:17:10.100Z,97.50
2017-07-01T14:19:38.397Z,97.10
2017-07-01T14:22:06.709Z,97.30
2017-07-01T14:24:34.258Z,97.30
2017-07-01T14:27:02.529Z,97.60
2017-07-01T14:29:30.797Z,97.60
2017-07-01T14:31:59.086Z,97.10
2017-07-01T14:34:28.883Z,96.50
2017-07-01T14:36:57.174Z,96.90
2017-07-01T14:39:25.446Z,97.30
2017-07-01T14:41:53.737Z,97.10
2017-07-01T14:44:22.027Z,97.10
2017-07-01T14:46:50.294Z,96.80
2017-07-01T14:49:18.587Z,97.60
2017-07-01T14:51:46.858Z,97.10
2017-07-01T14:54:15.148Z,97.50
2017-07-01T14:56:43.412Z,97.20
2017-07-01T14:59:11.678Z,97.40
2017-07-01T15:01:39.972Z,97.30
2017-07-01T15:04:08.240Z,97.20
2017-07-01T15:06:36.548Z,96.80
2017-07-01T15:09:04.832Z,96.80
2017-07-01T15:11:33.135Z,96.80
2017-07-01T15:14:01.410Z,96.80
2017-07-01T15:16:29.709Z,96.70
2017-07-01T15:18:58.003Z,96.70
2017-07-01T15:21:26.273Z,96.90
2017-07-01T15:23:54.729Z,96.80
2017-07-01T15:26:23.000Z,96.40
2017-07-01T15:28:51.297Z,95.60
2017-07-01T15:31:19.566Z,95.90
2017-07-01T15:33:47.884Z,96.10
2017-07-01T15:36:16.165Z,96.20
2017-07-01T15:38:44.441Z,96.60
2017-07-01T15:41:12.748Z,96.50
2017-07-01T15:43:41.031Z,96.10
2017-07-01T15:46:09.329Z,96.30
2017-07-01T15:48:37.607Z,96.70
2017-07-01T15:51:05.904Z,96.50
2017-07-01T15:53:34.173Z,96.30
2017-07-01T15:56:02.473Z,96.00
2017-07-01T15:58:30.852Z,96.30
2017-07-01T16:01:10.805Z,96.40
2017-07-01T16:03:39.069Z,96.60
2017-07-01T16:06:07.368Z,96.50
2017-07-01T16:08:34.895Z,96.10
2017-07-01T16:11:03.166Z,96.00
2017-07-01T16:13:31.461Z,96.30
2017-07-01T16:15:59.748Z,96.30
2017-07-01T16:18:28.034Z,96.40
2017-07-01T16:20:56.303Z,96.50
2017-07-01T16:23:24.617Z,97.00
2017-07-01T16:25:52.886Z,97.20
2017-07-01T16:28:21.149Z,97.10
2017-07-01T16:30:49.449Z,96.80
2017-07-01T16:33:17.720Z,96.20
2017-07-01T16:35:46.020Z,95.70
2017-07-01T16:38:14.297Z,96.00
2017-07-01T16:40:42.595Z,96.40
2017-07-01T16:43:10.870Z,96.40
2017-07-01T16:45:39.151Z,96.50
2017-07-01T16:48:07.446Z,97.00
2017-07-01T16:50:35.721Z,96.50
2017-07-01T16:53:04.038Z,96.80
2017-07-01T16:55:32.312Z,96.40
2017-07-01T16:58:00.628Z,96.30
2017-07-01T17:00:28.930Z,96.10
2017-07-01T17:02:57.237Z,96.20
2017-07-01T17:05:25.513Z,96.20
2017-07-01T17:07:53.809Z,94.80
2017-07-01T17:10:22.078Z,95.10
2017-07-01T17:12:50.383Z,95.10
2017-07-01T17:15:17.883Z,95.10
2017-07-01T17:17:46.190Z,94.60
2017-07-01T17:20:14.458Z,94.50
2017-07-01T17:22:42.766Z,94.10
2017-07-01T17:25:11.037Z,93.90
2017-07-01T17:27:39.316Z,93.70
2017-07-01T17:30:06.870Z,93.70
2017-07-01T17:32:35.140Z,93.30
2017-07-01T17:35:03.442Z,92.90
2017-07-01T17:37:31.725Z,93.70
2017-07-01T17:40:00.033Z,93.10
2017-07-01T17:42:28.309Z,93.20
2017-07-01T17:44:56.603Z,92.80
2017-07-01T17:47:24.874Z,92.70
2017-07-01T17:49:53.164Z,93.00
2017-07-01T17:52:21.424Z,93.50
2017-07-01T17:54:49.728Z,92.90
2017-07-01T17:57:18.025Z,93.40
2017-07-01T17:59:45.547Z,93.40
2017-07-01T18:02:13.861Z,92.70
2017-07-01T18:04:42.154Z,93.30
2017-07-01T18:07:10.426Z,92.90
2017-07-01T18:09:38.712Z,93.10
2017-07-01T18:12:06.988Z,93.20
2017-07-01T18:14:35.306Z,93.30
2017-07-01T18:17:03.586Z,93.30
2017-07-01T18:19:31.853Z,93.30
2017-07-01T18:22:00.148Z,93.60
2017-07-01T18:24:28.433Z,93.60
2017-07-01T18:26:56.733Z,94.00
2017-07-01T18:29:25.022Z,93.50
2017-07-01T18:31:53.324Z,93.70
2017-07-01T18:34:21.592Z,94.10
2017-07-01T18:36:49.893Z,93.70
2017-07-01T18:39:18.177Z,93.90
2017-07-01T18:41:46.486Z,93.70
2017-07-01T18:44:14.998Z,94.20
2017-07-01T18:46:43.286Z,94.20
2017-07-01T18:49:11.597Z,94.20
2017-07-01T18:51:39.874Z,93.80
2017-07-01T18:54:08.171Z,93.60
2017-07-01T18:56:36.440Z,93.50
2017-07-01T18:59:04.741Z,93.70
2017-07-01T19:01:33.022Z,93.60
2017-07-01T19:04:01.329Z,93.70
2017-07-01T19:06:29.625Z,93.80
2017-07-01T19:08:57.902Z,93.90
2017-07-01T19:11:26.201Z,93.80
2017-07-01T19:13:54.467Z,93.60
2017-07-01T19:16:22.770Z,93.70
2017-07-01T19:18:51.053Z,94.10
2017-07-01T19:21:19.377Z,93.90
2017-07-01T19:23:47.647Z,93.30
2017-07-01T19:26:15.921Z,93.50
2017-07-01T19:28:44.220Z,93.50
2017-07-01T19:31:13.053Z,93.60
2017-07-01T19:33:41.364Z,93.50
2017-07-01T19:36:09.731Z,93.40
2017-07-01T19:38:38.086Z,94.00
2017-07-01T19:41:06.381Z,93.70
2017-07-01T19:43:34.721Z,93.30
2017-07-01T19:46:03.011Z,93.30
2017-07-01T19:48:31.324Z,93.50
2017-07-01T19:50:59.588Z,93.50
2017-07-01T19:53:27.865Z,93.40
2017-07-01T19:55:56.162Z,93.40
2017-07-01T19:58:24.444Z,93.50
2017-07-01T20:00:52.764Z,92.90
2017-07-01T20:03:21.036Z,93.10
2017-07-01T20:05:49.304Z,92.90
2017-07-01T20:08:17.596Z,92.60
2017-07-01T20:10:45.876Z,92.80
2017-07-01T20:13:14.176Z,92.60
2017-07-01T20:15:42.441Z,92.60
2017-07-01T20:18:10.733Z,92.20
2017-07-01T20:20:39.008Z,92.20
2017-07-01T20:23:07.305Z,92.20
2017-07-01T20:25:35.576Z,91.80
2017-07-01T20:28:03.864Z,91.60
2017-07-01T20:30:32.129Z,91.70
2017-07-01T20:33:00.445Z,91.70
2017-07-01T20:35:28.732Z,92.00
2017-07-01T20:37:56.999Z,92.10
2017-07-01T20:40:25.295Z,91.70
2017-07-01T20:42:53.566Z,92.10
2017-07-01T20:45:21.869Z,92.00
2017-07-01T20:47:50.141Z,92.10
2017-07-01T20:50:18.447Z,91.90
2017-07-01T20:52:46.712Z,91.80
2017-07-01T20:55:15.009Z,92.10
2017-07-01T20:57:43.271Z,91.50
2017-07-01T21:00:11.567Z,91.60
2017-07-01T21:02:39.842Z,91.80
2017-07-01T21:05:08.142Z,91.60
2017-07-01T21:07:36.425Z,91.90
2017-07-01T21:10:04.694Z,91.70
2017-07-01T21:12:32.981Z,91.80
2017-07-01T21:15:01.257Z,91.70
2017-07-01T21:17:29.544Z,91.70
2017-07-01T21:19:57.819Z,91.50
2017-07-01T21:22:26.091Z,91.60
2017-07-01T21:24:54.401Z,91.40
2017-07-01T21:27:22.676Z,91.70
2017-07-01T21:29:50.955Z,91.30
2017-07-01T21:32:19.259Z,91.20
2017-07-01T21:34:47.534Z,91.60
2017-07-01T21:37:15.831Z,91.30
2017-07-01T21:39:44.092Z,91.20
2017-07-01T21:42:12.393Z,91.20
2017-07-01T21:44:40.666Z,91.80
2017-07-01T21:47:08.964Z,91.90
2017-07-01T21:49:37.231Z,92.00
2017-07-01T21:52:05.531Z,92.30
2017-07-01T21:54:33.836Z,92.80
2017-07-01T21:57:02.141Z,92.80
2017-07-01T21:59:30.448Z,92.50
2017-07-01T22:01:58.728Z,92.70
2017-07-01T22:04:27.016Z,92.30
2017-07-01T22:06:55.286Z,92.20
2017-07-01T22:09:23.596Z,92.30
2017-07-01T22:11:51.873Z,92.00
2017-07-01T22:14:20.151Z,91.80
2017-07-01T22:16:48.460Z,91.80
2017-07-01T22:19:15.999Z,91.70
2017-07-01T22:21:44.264Z,91.90
2017-07-01T22:24:11.761Z,91.90
2017-07-01T22:26:40.061Z,92.10
2017-07-01T22:29:08.324Z,92.00
2017-07-01T22:31:36.642Z,92.20
2017-07-01T22:34:04.936Z,92.80
2017-07-01T22:36:33.240Z,92.70
2017-07-01T22:39:01.543Z,92.80
2017-07-01T22:41:29.823Z,92.80
2017-07-01T22:43:58.121Z,92.80
2017-07-01T22:46:26.397Z,93.00
2017-07-01T22:48:54.702Z,93.20
2017-07-01T22:51:22.976Z,93.40
2017-07-01T22:53:51.286Z,93.40
2017-07-01T22:56:19.563Z,93.50
2017-07-01T22:58:47.873Z,93.40
2017-07-01T23:01:16.141Z,93.30
2017-07-01T23:03:44.448Z,93.50
2017-07-01T23:06:12.716Z,93.80
2017-07-01T23:08:40.996Z,93.90
2017-07-01T23:11:09.295Z,94.10
2017-07-01T23:13:37.574Z,94.20
2017-07-01T23:16:05.865Z,94.00
2017-07-01T23:18:34.135Z,93.90
2017-07-01T23:21:02.435Z,93.80
2017-07-01T23:23:30.709Z,94.00
2017-07-01T23:25:59.028Z,93.80
2017-07-01T23:28:27.306Z,93.80
2017-07-01T23:30:55.586Z,93.60
2017-07-01T23:33:23.886Z,93.50
2017-07-01T23:35:52.191Z,93.70
2017-07-01T23:38:20.506Z,94.00
2017-07-01T23:40:48.789Z,93.90
2017-07-01T23:43:17.070Z,94.00
2017-07-01T23:45:45.374Z,93.80
2017-07-01T23:48:13.644Z,93.80
2017-07-01T23:50:41.939Z,93.80
2017-07-01T23:53:10.248Z,93.70
2017-07-01T23:55:38.550Z,93.60
2017-07-01T23:58:06.821Z,93.60
